KBEA

Beeville Municipal Airport

Beeville, Texas, USA
METAR KBEA 260415Z AUTO 17005KT 10SM CLR 25/23 A2990 RMK AO2 T02450225
Observed Flight Rules
May-26 @ 04:15 UTC (11 minutes ago) Visual Flight Rules
Wind Visibility Clouds
170° at 5 knots 10 miles
  • Clear skies
Temperatures Readings
Current 25°C / 77°F
Dewpoint 23°C / 73°F
Humidity 89%
Altimeter 29.9" Hg
Pressure 1013 hPa
Elevation 82
METAR KBEA 260415Z AUTO 17005KT 10SM CLR 25/23 A2990 RMK AO2 T02450225
Observed Flight Rules
May-26 @ 04:15 UTC
(11 minutes ago)
VFR
Wind Visibility
170° at 5 knots 10 miles
Clouds
  • Clear skies
Temperature Dewpoint
25°C / 77°F 23°C / 73°F
Humidity Altimeter Pressure
89% 29.9" Hg 1013 hPa